createdAt,value
2018-11-11T00:01:15.144Z,13.17
2018-11-11T00:03:43.792Z,13.18
2018-11-11T00:06:12.494Z,13.18
2018-11-11T00:08:41.139Z,13.21
2018-11-11T00:11:09.870Z,13.20
2018-11-11T00:13:38.479Z,13.21
2018-11-11T00:16:07.257Z,13.24
2018-11-11T00:18:35.875Z,13.25
2018-11-11T00:21:04.753Z,13.23
2018-11-11T00:23:33.462Z,13.20
2018-11-11T00:26:02.762Z,13.21
2018-11-11T00:28:31.357Z,13.22
2018-11-11T00:31:00.661Z,13.19
2018-11-11T00:33:29.308Z,13.20
2018-11-11T00:35:57.864Z,13.23
2018-11-11T00:38:27.244Z,13.21
2018-11-11T00:40:55.888Z,13.20
2018-11-11T00:43:24.579Z,13.21
2018-11-11T00:45:53.301Z,13.23
2018-11-11T00:48:21.846Z,13.25
2018-11-11T00:50:50.435Z,13.23
2018-11-11T00:53:20.472Z,13.26
2018-11-11T00:55:49.370Z,13.23
2018-11-11T00:58:18.413Z,13.19
2018-11-11T01:00:47.027Z,13.17
2018-11-11T01:03:15.759Z,13.14
2018-11-11T01:05:44.466Z,13.11
2018-11-11T01:08:13.079Z,13.06
2018-11-11T01:10:41.672Z,13.03
2018-11-11T01:13:10.297Z,13.01
2018-11-11T01:15:39.035Z,12.96
2018-11-11T01:18:07.824Z,12.93
2018-11-11T01:20:36.513Z,12.95
2018-11-11T01:23:05.766Z,12.92
2018-11-11T01:25:34.359Z,12.91
2018-11-11T01:28:02.993Z,12.90
2018-11-11T01:30:31.560Z,12.88
2018-11-11T01:33:00.248Z,12.89
2018-11-11T01:35:28.966Z,12.89
2018-11-11T01:37:57.745Z,12.92
2018-11-11T01:40:26.362Z,12.92
2018-11-11T01:42:54.971Z,12.94
2018-11-11T01:45:23.554Z,12.95
2018-11-11T01:47:52.162Z,12.94
2018-11-11T01:50:20.754Z,12.96
2018-11-11T01:52:49.456Z,12.96
2018-11-11T01:55:19.171Z,13.02
2018-11-11T01:57:47.787Z,13.02
2018-11-11T02:00:17.632Z,13.04
2018-11-11T02:02:47.050Z,13.07
2018-11-11T02:05:16.112Z,13.13
2018-11-11T02:07:46.751Z,13.11
2018-11-11T02:10:15.557Z,13.11
2018-11-11T02:12:45.234Z,13.11
2018-11-11T02:15:15.269Z,13.13
2018-11-11T02:17:43.944Z,13.07
2018-11-11T02:20:20.930Z,13.06
2018-11-11T02:22:50.868Z,12.99
2018-11-11T02:25:19.427Z,12.96
2018-11-11T02:27:48.069Z,12.96
2018-11-11T02:30:18.903Z,12.98
2018-11-11T02:32:47.494Z,13.01
2018-11-11T02:35:16.121Z,12.98
2018-11-11T02:37:45.068Z,12.98
2018-11-11T02:51:59.329Z,13.08
2018-11-11T02:57:30.452Z,13.16
2018-11-11T02:59:59.140Z,13.18
2018-11-11T03:02:27.789Z,13.19
2018-11-11T03:04:56.557Z,13.22
2018-11-11T03:07:25.417Z,13.24
2018-11-11T03:09:54.183Z,13.24
2018-11-11T03:12:22.844Z,13.25
2018-11-11T03:14:51.433Z,13.22
2018-11-11T03:17:20.041Z,13.24
2018-11-11T03:19:48.606Z,13.25
2018-11-11T03:22:17.190Z,13.22
2018-11-11T03:24:45.717Z,13.20
2018-11-11T03:27:14.276Z,13.18
2018-11-11T03:29:42.829Z,13.18
2018-11-11T03:32:11.410Z,13.16
2018-11-11T03:34:39.985Z,13.08
2018-11-11T03:37:08.571Z,13.04
2018-11-11T03:39:37.373Z,13.04
2018-11-11T03:42:06.195Z,13.05
2018-11-11T03:44:34.851Z,13.03
2018-11-11T03:47:03.621Z,13.00
2018-11-11T03:49:32.382Z,12.96
2018-11-11T03:52:01.415Z,12.96
2018-11-11T03:54:30.046Z,12.93
2018-11-11T03:56:58.954Z,12.93
2018-11-11T03:59:27.658Z,12.95
2018-11-11T04:01:56.416Z,12.90
2018-11-11T04:04:25.171Z,12.90
2018-11-11T04:06:53.772Z,12.86
2018-11-11T04:09:22.414Z,12.83
2018-11-11T04:11:51.099Z,12.80
2018-11-11T04:14:19.888Z,12.75
2018-11-11T04:16:48.643Z,12.72
2018-11-11T04:19:17.393Z,12.71
2018-11-11T04:21:46.150Z,12.63
2018-11-11T04:24:14.856Z,12.61
2018-11-11T04:26:43.743Z,12.63
2018-11-11T04:29:12.473Z,12.63
2018-11-11T04:31:41.143Z,12.58
2018-11-11T04:34:10.070Z,12.60
2018-11-11T04:36:38.643Z,12.59
2018-11-11T04:39:10.297Z,12.61
2018-11-11T04:41:38.847Z,12.59
2018-11-11T04:44:07.637Z,12.58
2018-11-11T04:46:36.401Z,12.57
2018-11-11T04:49:05.229Z,12.57
2018-11-11T04:51:33.858Z,12.53
2018-11-11T04:54:02.541Z,12.48
2018-11-11T04:56:31.161Z,12.52
2018-11-11T04:58:59.791Z,12.55
2018-11-11T05:01:28.636Z,12.56
2018-11-11T05:03:57.332Z,12.54
2018-11-11T05:06:25.863Z,12.50
2018-11-11T05:08:54.684Z,12.46
2018-11-11T05:11:23.277Z,12.45
2018-11-11T05:13:51.956Z,12.38
2018-11-11T05:16:20.610Z,12.37
2018-11-11T05:18:49.213Z,12.39
2018-11-11T05:21:17.942Z,12.39
2018-11-11T05:23:46.607Z,12.30
2018-11-11T05:26:15.375Z,12.30
2018-11-11T05:28:44.071Z,12.34
2018-11-11T05:31:12.653Z,12.33
2018-11-11T05:33:41.206Z,12.34
2018-11-11T05:36:09.774Z,12.31
2018-11-11T05:38:38.399Z,12.32
2018-11-11T05:41:07.299Z,12.32
2018-11-11T05:43:36.004Z,12.30
2018-11-11T05:46:04.711Z,12.25
2018-11-11T05:48:33.306Z,12.23
2018-11-11T05:51:02.093Z,12.24
2018-11-11T05:53:30.684Z,12.30
2018-11-11T05:55:59.322Z,12.35
2018-11-11T05:58:27.900Z,12.41
2018-11-11T06:00:56.563Z,12.46
2018-11-11T06:03:25.318Z,12.50
2018-11-11T06:05:54.004Z,12.53
2018-11-11T06:08:22.742Z,12.48
2018-11-11T06:10:51.444Z,12.46
2018-11-11T06:13:20.071Z,12.47
2018-11-11T06:15:48.830Z,12.46
2018-11-11T06:18:17.484Z,12.53
2018-11-11T06:20:46.133Z,12.58
2018-11-11T06:23:14.846Z,12.64
2018-11-11T06:25:43.531Z,12.68
2018-11-11T06:28:12.174Z,12.70
2018-11-11T06:30:40.812Z,12.72
2018-11-11T06:33:09.400Z,12.78
2018-11-11T06:35:38.001Z,12.81
2018-11-11T06:38:06.603Z,12.83
2018-11-11T06:40:35.256Z,12.86
2018-11-11T06:43:03.927Z,12.87
2018-11-11T06:45:32.565Z,12.90
2018-11-11T06:48:01.246Z,12.92
2018-11-11T06:50:29.892Z,12.92
2018-11-11T06:52:58.636Z,12.94
2018-11-11T06:55:27.322Z,12.93
2018-11-11T06:57:55.975Z,12.96
2018-11-11T07:00:24.681Z,12.97
2018-11-11T07:03:04.590Z,12.97
2018-11-11T07:05:33.204Z,12.99
2018-11-11T07:08:01.878Z,12.98
2018-11-11T07:10:31.566Z,13.01
2018-11-11T07:13:00.307Z,13.03
2018-11-11T07:15:29.184Z,13.05
2018-11-11T07:17:57.881Z,13.04
2018-11-11T07:20:26.798Z,13.05
2018-11-11T07:22:55.383Z,13.05
2018-11-11T07:25:24.124Z,13.06
2018-11-11T07:27:52.619Z,13.06
2018-11-11T07:30:21.221Z,13.06
2018-11-11T07:32:50.994Z,13.07
2018-11-11T07:35:19.668Z,13.05
2018-11-11T07:37:48.276Z,13.05
2018-11-11T07:40:17.415Z,13.03
2018-11-11T07:42:46.062Z,13.06
2018-11-11T07:45:14.738Z,13.06
2018-11-11T07:47:43.533Z,13.07
2018-11-11T07:50:12.633Z,13.08
2018-11-11T07:52:41.322Z,13.11
2018-11-11T07:55:12.044Z,13.12
2018-11-11T07:57:41.089Z,13.12
2018-11-11T08:00:11.929Z,13.13
2018-11-11T08:02:40.714Z,13.16
2018-11-11T08:05:09.743Z,13.16
2018-11-11T08:07:38.485Z,13.15
2018-11-11T08:10:17.484Z,13.18
2018-11-11T08:12:46.394Z,13.20
2018-11-11T08:15:15.039Z,13.23
2018-11-11T08:17:44.030Z,13.27
2018-11-11T08:20:12.723Z,13.29
2018-11-11T08:22:41.850Z,13.34
2018-11-11T08:25:10.513Z,13.36
2018-11-11T08:27:39.227Z,13.37
2018-11-11T08:30:08.934Z,13.36
2018-11-11T08:32:38.004Z,13.39
2018-11-11T08:35:07.713Z,13.39
2018-11-11T08:37:36.314Z,13.40
2018-11-11T08:40:05.463Z,13.43
2018-11-11T08:42:34.163Z,13.43
2018-11-11T08:45:03.091Z,13.44
2018-11-11T08:47:31.761Z,13.45
2018-11-11T08:50:00.478Z,13.46
2018-11-11T08:52:29.081Z,13.48
2018-11-11T08:54:57.812Z,13.44
2018-11-11T08:57:26.576Z,13.43
2018-11-11T08:59:55.340Z,13.40
2018-11-11T09:02:24.066Z,13.43
2018-11-11T09:04:53.188Z,13.40
2018-11-11T09:07:21.968Z,13.41
2018-11-11T09:09:50.598Z,13.44
2018-11-11T09:12:19.225Z,13.47
2018-11-11T09:14:47.977Z,13.47
2018-11-11T09:17:16.720Z,13.50
2018-11-11T09:19:45.474Z,13.53
2018-11-11T09:22:14.164Z,13.57
2018-11-11T09:24:42.793Z,13.62
2018-11-11T09:27:11.512Z,13.63
2018-11-11T09:29:40.259Z,13.68
2018-11-11T09:32:08.932Z,13.72
2018-11-11T09:34:37.711Z,13.77
2018-11-11T09:37:06.609Z,13.78
2018-11-11T09:39:35.248Z,13.78
2018-11-11T09:42:03.941Z,13.83
2018-11-11T09:44:32.673Z,13.86
2018-11-11T09:47:01.363Z,13.94
2018-11-11T09:49:30.134Z,13.97
2018-11-11T09:51:59.166Z,13.96
2018-11-11T09:54:28.152Z,14.03
2018-11-11T09:56:56.938Z,14.04
2018-11-11T09:59:25.735Z,14.03
2018-11-11T10:02:03.503Z,14.00
2018-11-11T10:04:40.035Z,14.04
2018-11-11T10:07:15.819Z,14.04
2018-11-11T10:09:49.696Z,14.00
2018-11-11T10:12:23.806Z,14.03
2018-11-11T10:15:00.637Z,14.10
2018-11-11T10:18:33.257Z,14.09
2018-11-11T10:24:07.077Z,14.20
2018-11-11T10:26:42.855Z,14.22
2018-11-11T10:30:16.601Z,14.29
2018-11-11T10:33:02.526Z,14.34
2018-11-11T10:35:53.236Z,14.37
2018-11-11T10:38:28.372Z,14.34
2018-11-11T10:41:01.566Z,14.39
2018-11-11T10:43:37.031Z,14.46
2018-11-11T10:46:10.315Z,14.42
2018-11-11T10:48:41.952Z,14.40
2018-11-11T10:51:11.214Z,14.34
2018-11-11T10:53:40.927Z,14.35
2018-11-11T10:56:09.795Z,14.30
2018-11-11T10:58:43.705Z,14.26
2018-11-11T11:01:18.889Z,14.25
2018-11-11T11:03:47.708Z,14.33
2018-11-11T11:06:16.597Z,14.35
2018-11-11T11:08:50.563Z,14.38
2018-11-11T11:11:19.337Z,14.39
2018-11-11T11:13:48.122Z,14.35
2018-11-11T11:16:16.866Z,14.32
2018-11-11T11:18:45.637Z,14.30
2018-11-11T11:21:14.859Z,14.47
2018-11-11T11:23:43.948Z,14.70
2018-11-11T11:26:12.949Z,14.89
2018-11-11T11:28:41.968Z,15.11
2018-11-11T11:31:11.195Z,15.30
2018-11-11T11:33:40.158Z,15.42
2018-11-11T11:36:09.189Z,15.53
2018-11-11T11:38:39.081Z,15.75
2018-11-11T11:41:07.721Z,15.98
2018-11-11T11:43:36.528Z,16.27
2018-11-11T11:46:05.793Z,16.44
2018-11-11T11:48:35.918Z,16.63
2018-11-11T11:51:05.256Z,16.73
2018-11-11T11:53:34.083Z,16.79
2018-11-11T11:56:03.015Z,16.87
2018-11-11T11:58:33.034Z,16.69
2018-11-11T12:01:01.858Z,16.63
2018-11-11T12:03:30.596Z,16.56
2018-11-11T12:05:59.292Z,16.43
2018-11-11T12:08:28.144Z,16.36
2018-11-11T12:10:57.291Z,16.23
2018-11-11T12:13:26.251Z,16.12
2018-11-11T12:15:55.307Z,16.05
2018-11-11T12:18:24.060Z,16.09
2018-11-11T12:20:52.779Z,16.11
2018-11-11T12:23:22.064Z,16.17
2018-11-11T12:25:51.121Z,16.29
2018-11-11T12:28:20.195Z,16.41
2018-11-11T12:30:49.179Z,16.44
2018-11-11T12:33:17.978Z,16.44
2018-11-11T12:35:47.253Z,16.45
2018-11-11T12:38:15.982Z,16.54
2018-11-11T12:40:44.625Z,16.57
2018-11-11T12:43:13.339Z,16.41
2018-11-11T12:45:41.927Z,16.20
2018-11-11T12:48:10.815Z,16.10
2018-11-11T12:50:39.538Z,16.00
2018-11-11T12:53:08.177Z,15.92
2018-11-11T12:55:36.883Z,15.84
2018-11-11T12:58:06.225Z,15.80
2018-11-11T13:00:34.965Z,15.77
2018-11-11T13:03:03.726Z,15.77
2018-11-11T13:05:32.402Z,15.75
2018-11-11T13:08:01.352Z,15.71
2018-11-11T13:10:30.687Z,15.68
2018-11-11T13:12:59.312Z,15.67
2018-11-11T13:15:28.251Z,15.63
2018-11-11T13:17:57.047Z,15.56
2018-11-11T13:20:25.771Z,15.51
2018-11-11T13:22:54.823Z,15.49
2018-11-11T13:25:23.577Z,15.55
2018-11-11T13:27:52.396Z,15.57
2018-11-11T13:30:21.297Z,15.59
2018-11-11T13:32:50.200Z,15.56
2018-11-11T13:35:19.055Z,15.49
2018-11-11T13:37:53.418Z,15.41
2018-11-11T13:40:25.396Z,15.34
2018-11-11T13:42:54.243Z,15.32
2018-11-11T13:45:23.597Z,15.30
2018-11-11T13:47:52.781Z,15.31
2018-11-11T13:50:24.122Z,15.32
2018-11-11T13:52:54.277Z,15.32
2018-11-11T13:55:23.453Z,15.35
2018-11-11T13:57:52.307Z,15.35
2018-11-11T14:00:26.898Z,15.33
2018-11-11T14:02:56.029Z,15.34
2018-11-11T14:05:25.020Z,15.34
2018-11-11T14:07:53.659Z,15.32
2018-11-11T14:10:23.867Z,15.28
2018-11-11T14:12:52.728Z,15.22
2018-11-11T14:15:26.320Z,15.21
2018-11-11T14:17:55.669Z,15.20
2018-11-11T14:20:25.449Z,15.21
2018-11-11T14:22:55.050Z,15.20
2018-11-11T14:25:26.643Z,15.19
2018-11-11T14:27:55.295Z,15.18
2018-11-11T14:30:25.414Z,15.17
2018-11-11T14:32:54.895Z,15.16
2018-11-11T14:35:23.762Z,15.17
2018-11-11T14:37:52.956Z,15.16
2018-11-11T14:40:23.558Z,15.13
2018-11-11T14:42:52.393Z,15.11
2018-11-11T14:45:23.429Z,15.08
2018-11-11T14:47:54.276Z,15.07
2018-11-11T14:50:23.671Z,15.06
2018-11-11T14:52:52.617Z,15.02
2018-11-11T14:55:22.619Z,15.01
2018-11-11T14:57:51.310Z,14.98
2018-11-11T15:00:23.347Z,14.96
2018-11-11T15:02:59.026Z,14.95
2018-11-11T15:05:28.019Z,14.93
2018-11-11T15:07:56.898Z,14.92
2018-11-11T15:10:25.539Z,14.89
2018-11-11T15:12:54.528Z,14.90
2018-11-11T15:15:24.185Z,14.87
2018-11-11T15:17:54.441Z,14.87
2018-11-11T15:20:23.263Z,14.85
2018-11-11T15:22:51.888Z,14.84
2018-11-11T15:25:22.222Z,14.84
2018-11-11T15:27:51.193Z,14.83
2018-11-11T15:30:26.264Z,14.83
2018-11-11T15:32:55.534Z,14.81
2018-11-11T15:35:24.277Z,14.79
2018-11-11T15:37:52.977Z,14.74
2018-11-11T15:40:27.888Z,14.74
2018-11-11T15:42:56.747Z,14.71
2018-11-11T15:45:26.959Z,14.71
2018-11-11T15:47:55.776Z,14.68
2018-11-11T15:50:26.225Z,14.69
2018-11-11T15:52:56.396Z,14.66
2018-11-11T15:55:26.451Z,14.61
2018-11-11T15:57:55.139Z,14.62
2018-11-11T16:00:26.292Z,14.62
2018-11-11T16:02:55.041Z,14.62
2018-11-11T16:05:23.722Z,14.63
2018-11-11T16:07:53.087Z,14.64
2018-11-11T16:10:28.020Z,14.66
2018-11-11T16:12:57.034Z,14.67
2018-11-11T16:15:35.812Z,14.67
2018-11-11T16:18:07.188Z,14.67
2018-11-11T16:20:35.964Z,14.71
2018-11-11T16:23:05.740Z,14.72
2018-11-11T16:25:35.020Z,14.74
2018-11-11T16:28:03.558Z,14.77
2018-11-11T16:30:33.795Z,14.81
2018-11-11T16:33:02.796Z,14.84
2018-11-11T16:35:32.381Z,14.86
2018-11-11T16:38:01.696Z,14.87
2018-11-11T16:40:31.773Z,14.88
2018-11-11T16:43:01.029Z,14.91
2018-11-11T16:45:30.509Z,14.91
2018-11-11T16:47:59.127Z,14.92
2018-11-11T16:50:29.552Z,14.91
2018-11-11T16:52:59.676Z,14.94
2018-11-11T16:55:30.046Z,14.95
2018-11-11T16:57:58.544Z,14.95
2018-11-11T17:00:29.526Z,14.97
2018-11-11T17:02:59.222Z,14.97
2018-11-11T17:05:29.472Z,14.97
2018-11-11T17:07:58.042Z,14.96
2018-11-11T17:10:28.965Z,14.98
2018-11-11T17:12:58.895Z,14.99
2018-11-11T17:15:29.211Z,15.00
2018-11-11T17:17:58.627Z,15.02
2018-11-11T17:20:28.054Z,15.00
2018-11-11T17:23:00.012Z,15.01
2018-11-11T17:25:28.893Z,15.08
2018-11-11T17:27:57.697Z,15.12
2018-11-11T17:30:28.103Z,15.13
2018-11-11T17:32:57.507Z,15.09
2018-11-11T17:35:26.745Z,15.09
2018-11-11T17:37:56.067Z,15.10
2018-11-11T17:40:27.104Z,15.08
2018-11-11T17:42:59.445Z,15.08
2018-11-11T17:45:28.731Z,15.08
2018-11-11T17:47:59.269Z,15.06
2018-11-11T17:50:31.241Z,15.07
2018-11-11T17:53:01.162Z,15.06
2018-11-11T17:55:30.352Z,15.07
2018-11-11T17:58:00.873Z,15.09
2018-11-11T18:00:31.114Z,15.06
2018-11-11T18:05:42.212Z,15.09
2018-11-11T18:08:10.953Z,15.08
2018-11-11T18:10:39.505Z,15.10
2018-11-11T18:13:08.246Z,15.12
2018-11-11T18:15:36.831Z,15.14
2018-11-11T18:18:05.769Z,15.14
2018-11-11T18:20:34.544Z,15.17
2018-11-11T18:23:03.981Z,15.17
2018-11-11T18:25:32.526Z,15.15
2018-11-11T18:28:01.305Z,15.16
2018-11-11T18:30:33.562Z,15.09
2018-11-11T18:33:02.246Z,15.09
2018-11-11T18:35:30.968Z,15.08
2018-11-11T18:37:59.591Z,15.29
2018-11-11T18:40:29.216Z,15.51
2018-11-11T18:42:58.080Z,15.71
2018-11-11T18:45:28.087Z,15.82
2018-11-11T18:47:56.807Z,15.82
2018-11-11T18:50:29.087Z,15.85
2018-11-11T18:52:57.793Z,15.82
2018-11-11T18:55:26.654Z,15.88
2018-11-11T18:57:55.345Z,15.91
2018-11-11T19:00:25.382Z,15.93
2018-11-11T19:02:54.803Z,15.95
2018-11-11T19:05:24.402Z,15.86
2018-11-11T19:07:53.365Z,15.70
2018-11-11T19:10:23.371Z,15.53
2018-11-11T19:12:53.457Z,15.40
2018-11-11T19:15:22.387Z,15.32
2018-11-11T19:17:51.855Z,15.26
2018-11-11T19:20:22.693Z,15.18
2018-11-11T19:22:51.647Z,15.14
2018-11-11T19:25:22.042Z,15.12
2018-11-11T19:27:52.524Z,15.05
2018-11-11T19:30:23.118Z,14.99
2018-11-11T19:32:52.311Z,14.97
2018-11-11T19:35:21.061Z,14.95
2018-11-11T19:37:51.370Z,14.94
2018-11-11T19:40:21.582Z,14.88
2018-11-11T19:42:51.059Z,14.91
2018-11-11T19:45:21.105Z,14.89
2018-11-11T19:47:49.936Z,14.87
2018-11-11T19:50:20.140Z,14.88
2018-11-11T19:52:49.957Z,14.85
2018-11-11T19:55:19.564Z,14.83
2018-11-11T19:57:48.260Z,14.81
2018-11-11T20:00:20.740Z,14.78
2018-11-11T20:02:50.357Z,14.78
2018-11-11T20:05:19.566Z,14.76
2018-11-11T20:07:49.408Z,14.77
2018-11-11T20:10:19.011Z,14.78
2018-11-11T20:12:47.597Z,14.78
2018-11-11T20:15:21.047Z,14.78
2018-11-11T20:17:49.993Z,14.80
2018-11-11T20:20:20.678Z,14.79
2018-11-11T20:22:49.858Z,14.79
2018-11-11T20:25:19.497Z,14.82
2018-11-11T20:27:48.542Z,14.83
2018-11-11T20:30:19.814Z,14.84
2018-11-11T20:32:48.550Z,14.85
2018-11-11T20:35:19.889Z,14.86
2018-11-11T20:37:48.665Z,14.88
2018-11-11T20:40:18.516Z,14.85
2018-11-11T20:42:47.525Z,14.84
2018-11-11T20:45:17.682Z,14.79
2018-11-11T20:47:47.013Z,14.80
2018-11-11T20:50:17.459Z,14.81
2018-11-11T20:52:47.132Z,14.81
2018-11-11T20:55:16.662Z,14.83
2018-11-11T20:57:45.285Z,14.82
2018-11-11T21:00:17.278Z,14.83
2018-11-11T21:02:46.244Z,14.81
2018-11-11T21:05:17.369Z,14.82
2018-11-11T21:07:46.076Z,14.82
2018-11-11T21:10:16.936Z,14.83
2018-11-11T21:12:45.576Z,14.79
2018-11-11T21:15:15.513Z,14.77
2018-11-11T21:17:44.693Z,14.76
2018-11-11T21:20:14.762Z,14.73
2018-11-11T21:22:43.745Z,14.68
2018-11-11T21:25:13.038Z,14.66
2018-11-11T21:27:42.608Z,14.62
2018-11-11T21:30:13.846Z,14.57
2018-11-11T21:32:42.583Z,14.54
2018-11-11T21:35:12.039Z,14.50
2018-11-11T21:37:41.094Z,14.47
2018-11-11T21:40:12.000Z,14.47
2018-11-11T21:42:41.135Z,14.42
2018-11-11T21:45:11.261Z,14.41
2018-11-11T21:47:40.020Z,14.38
2018-11-11T21:50:11.196Z,14.35
2018-11-11T21:52:39.828Z,14.35
2018-11-11T21:55:08.880Z,14.34
2018-11-11T21:57:37.728Z,14.25
2018-11-11T22:00:09.146Z,14.20
2018-11-11T22:02:37.897Z,14.14
2018-11-11T22:05:08.601Z,14.11
2018-11-11T22:07:37.667Z,14.07
2018-11-11T22:10:08.526Z,14.10
2018-11-11T22:12:37.495Z,14.08
2018-11-11T22:15:07.933Z,14.06
2018-11-11T22:17:36.630Z,14.07
2018-11-11T22:20:05.901Z,14.07
2018-11-11T22:22:34.605Z,14.06
2018-11-11T22:25:03.599Z,14.08
2018-11-11T22:27:32.252Z,14.07
2018-11-11T22:30:00.918Z,14.03
2018-11-11T22:32:29.447Z,14.05
2018-11-11T22:34:58.254Z,13.97
2018-11-11T22:37:26.993Z,13.97
2018-11-11T22:39:55.699Z,13.91
2018-11-11T22:42:24.305Z,13.92
2018-11-11T22:44:53.341Z,13.90
2018-11-11T22:47:21.908Z,13.91
2018-11-11T22:49:51.813Z,13.88
2018-11-11T22:52:21.039Z,13.90
2018-11-11T22:54:49.694Z,13.89
2018-11-11T22:57:18.360Z,13.87
2018-11-11T22:59:47.931Z,13.88
2018-11-11T23:02:17.033Z,13.87
2018-11-11T23:04:45.734Z,13.87
2018-11-11T23:07:14.911Z,13.87
2018-11-11T23:09:44.081Z,13.86
2018-11-11T23:12:13.766Z,13.87
2018-11-11T23:14:45.351Z,13.87
2018-11-11T23:17:13.877Z,13.88
2018-11-11T23:19:42.611Z,13.89
2018-11-11T23:22:11.269Z,13.86
2018-11-11T23:24:39.997Z,13.86
2018-11-11T23:27:09.095Z,13.83
2018-11-11T23:29:37.935Z,13.80
2018-11-11T23:32:06.563Z,13.80
2018-11-11T23:34:35.077Z,13.72
2018-11-11T23:37:04.140Z,13.72
2018-11-11T23:39:32.740Z,13.74
2018-11-11T23:42:01.372Z,13.71
2018-11-11T23:44:29.942Z,13.69
2018-11-11T23:46:58.615Z,13.69
2018-11-11T23:49:27.279Z,13.70
2018-11-11T23:51:56.094Z,13.70
2018-11-11T23:54:24.798Z,13.71
2018-11-11T23:56:53.562Z,13.68
2018-11-11T23:59:22.192Z,13.62
